Rutland, VT

11:28 AM EST on February 09, 2016 (GMT -0500)
NWS CO-OP RUTV1 | | Change Station
CLOSE
Current Station
Personal Weather Station
Location: Rutland, VT
Elevation: 620 ft
Nearby Weather Stations

Elev 620 ft 43.63 °N, 72.98 °W | Updated 6 minutes ago

Snow
Snow
24.8 °F
Feels Like 25 °F
N
1.0
Wind Variable Wind from South
Gusts 8.0 mph

Today
High -- | Low -- °F
--% Chance of Precip.
Yesterday
High -- | Low -- °F
Precip. -- in
Pressure 29.64 in
Visibility 5.0 miles
Clouds Mostly Cloudy 3900 ft
Overcast 4600 ft
Windchill 25 °F
Dew Point 17 °F
Humidity 73%
Rainfall 0.00 in
Snow Depth Not available.
6:59 AM 5:13 PM
New Moon, 2% visible
METAR KRUT 091615Z 11006KT 5SM BKN039 OVC046 M06/M09 A2964 RMK AO1
Pressure 29.64 in
Visibility 5.0 miles
Clouds Mostly Cloudy 3900 ft
Overcast 4600 ft
Windchill 25 °F
Dew Point 17 °F
Humidity 73%
Rainfall 0.00 in
Snow Depth Not available.
6:59 AM 5:13 PM
New Moon, 2% visible
METAR KRUT 091615Z 11006KT 5SM BKN039 OVC046 M06/M09 A2964 RMK AO1

10-Day Weather Forecast

Almanac

Astronomy

Feb. 09, 2016 Rise Set
Actual Time
Civil Twilight
Nautical Twilight
Astronomical Twilight
Moon
Length of Visible Light
Length of Day
Tomorrow will be .
, % of the Moon is Illuminated

Today's Extremes

State Highs State Lows

Community

WunderPhotos

Upload Photos

1,891,633 photos uploaded!

WunderBlog® & News

Nearby

Air Quality

  Air Quality AQ Index Pollutant
Not available.

Snow Depth

Station Depth Elevation

Earthquake Activity

City Distance Mag. Time & Date
Minimum magnitude displayed is 2.5.

Coastal Water Temperatures

Place Temperature

Stations

Nearby Weather Stations

Station Location Temp. Windchill Dew Point Humidity Wind Precip. Elev Updated Type
                   

Watches & Warnings

There are currently no watches in effect.